createdAt,value
2023-04-02T00:00:23.959Z,99964.59
2023-04-02T00:05:51.250Z,99959.94
2023-04-02T00:10:56.722Z,99967.78
2023-04-02T00:16:00.450Z,99976.56
2023-04-02T00:21:13.474Z,99982.81
2023-04-02T00:26:30.978Z,99992.03
2023-04-02T00:31:35.010Z,100004.88
2023-04-02T00:36:39.432Z,100016.34
2023-04-02T00:41:46.615Z,100022.91
2023-04-02T00:46:50.592Z,100033.50
2023-04-02T00:51:59.110Z,100032.28
2023-04-02T00:57:02.827Z,100040.75
2023-04-02T01:02:22.437Z,100050.31
2023-04-02T01:07:41.923Z,100063.22
2023-04-02T01:12:56.654Z,100060.34
2023-04-02T01:18:18.107Z,100066.09
2023-04-02T01:23:29.549Z,100074.50
2023-04-02T01:28:47.250Z,100087.13
2023-04-02T01:33:50.144Z,100099.63
2023-04-02T01:39:02.178Z,100115.31
2023-04-02T01:44:09.411Z,100118.59
2023-04-02T01:49:15.969Z,100130.59
2023-04-02T01:54:19.189Z,100135.72
2023-04-02T01:59:26.340Z,100156.03
2023-04-02T02:04:35.550Z,100162.28
2023-04-02T02:09:38.611Z,100176.66
2023-04-02T02:14:47.596Z,100178.56
2023-04-02T02:19:55.674Z,100200.97
2023-04-02T02:25:00.378Z,100211.00
2023-04-02T02:30:12.273Z,100219.69
2023-04-02T02:35:21.963Z,100227.88
2023-04-02T02:40:30.918Z,100240.31
2023-04-02T02:45:39.713Z,100248.38
2023-04-02T02:50:42.922Z,100251.78
2023-04-02T02:55:48.871Z,100266.47
2023-04-02T03:00:57.254Z,100271.53
2023-04-02T03:06:05.319Z,100284.34
2023-04-02T03:11:15.299Z,100298.56
2023-04-02T03:16:26.975Z,100294.63
2023-04-02T03:21:35.982Z,100303.97
2023-04-02T03:26:43.326Z,100320.84
2023-04-02T03:31:54.692Z,100319.34
2023-04-02T03:37:00.626Z,100343.16
2023-04-02T03:42:10.022Z,100345.69
2023-04-02T03:47:20.769Z,100361.00
2023-04-02T03:52:27.158Z,100381.72
2023-04-02T03:57:37.485Z,100393.50
2023-04-02T04:02:47.063Z,100411.31
2023-04-02T04:07:54.035Z,100414.41
2023-04-02T04:13:04.875Z,100428.53
2023-04-02T04:18:19.828Z,100438.19
2023-04-02T04:23:30.198Z,100444.28
2023-04-02T04:28:43.616Z,100448.13
2023-04-02T04:33:54.776Z,100465.13
2023-04-02T04:39:05.864Z,100476.75
2023-04-02T04:44:18.232Z,100478.94
2023-04-02T04:49:29.263Z,100493.66
2023-04-02T04:54:32.256Z,100501.22
2023-04-02T04:59:43.489Z,100516.31
2023-04-02T05:04:52.522Z,100525.44
2023-04-02T05:10:01.642Z,100537.19
2023-04-02T05:15:17.266Z,100530.16
2023-04-02T05:20:26.918Z,100549.59
2023-04-02T05:25:34.151Z,100566.16
2023-04-02T05:30:52.470Z,100575.16
2023-04-02T05:36:02.231Z,100576.34
2023-04-02T05:41:15.891Z,100590.59
2023-04-02T05:46:23.466Z,100589.34
2023-04-02T05:51:37.216Z,100616.63
2023-04-02T05:56:44.561Z,100622.59
2023-04-02T06:01:52.636Z,100640.38
2023-04-02T06:07:08.100Z,100647.22
2023-04-02T06:12:27.980Z,100655.09
2023-04-02T06:17:43.339Z,100678.22
2023-04-02T06:22:52.375Z,100678.31
2023-04-02T06:27:59.300Z,100695.22
2023-04-02T06:33:02.228Z,100716.41
2023-04-02T06:38:16.950Z,100727.28
2023-04-02T06:43:27.388Z,100738.22
2023-04-02T06:48:42.807Z,100754.19
2023-04-02T06:53:49.287Z,100763.69
2023-04-02T06:58:54.724Z,100778.44
2023-04-02T07:03:59.123Z,100780.47
2023-04-02T07:09:09.553Z,100788.97
2023-04-02T07:14:16.514Z,100805.03
2023-04-02T07:19:22.257Z,100812.81
2023-04-02T07:24:30.852Z,100836.91
2023-04-02T07:29:33.572Z,100841.31
2023-04-02T07:34:36.494Z,100850.81
2023-04-02T07:39:41.431Z,100848.06
2023-04-02T07:44:44.215Z,100872.34
2023-04-02T07:49:47.010Z,100870.78
2023-04-02T07:54:51.468Z,100891.78
2023-04-02T07:59:56.503Z,100892.78
2023-04-02T08:04:59.291Z,100907.81
2023-04-02T08:10:03.658Z,100913.69
2023-04-02T08:15:08.046Z,100924.53
2023-04-02T08:20:16.109Z,100926.50
2023-04-02T08:25:20.267Z,100936.69
2023-04-02T08:30:23.276Z,100938.31
2023-04-02T08:35:26.484Z,100954.03
2023-04-02T08:40:35.048Z,100951.38
2023-04-02T08:45:48.587Z,100959.25
2023-04-02T08:50:51.873Z,100978.31
2023-04-02T08:56:05.283Z,100995.78
2023-04-02T09:01:12.367Z,101001.03
2023-04-02T09:06:19.372Z,101007.09
2023-04-02T09:11:27.238Z,101013.81
2023-04-02T09:16:43.534Z,101013.44
2023-04-02T09:21:56.954Z,101016.09
2023-04-02T09:27:01.219Z,101032.94
2023-04-02T09:32:18.773Z,101038.03
2023-04-02T09:37:25.339Z,101041.63
2023-04-02T09:42:35.082Z,101054.81
2023-04-02T09:47:40.272Z,101057.63
2023-04-02T09:52:44.889Z,101069.50
2023-04-02T09:57:51.962Z,101075.31
2023-04-02T10:03:06.815Z,101085.03
2023-04-02T10:08:18.794Z,101089.66
2023-04-02T10:13:27.763Z,101104.25
2023-04-02T10:18:40.408Z,101101.56
2023-04-02T10:23:43.101Z,101106.56
2023-04-02T10:29:01.084Z,101112.47
2023-04-02T10:34:11.320Z,101122.47
2023-04-02T10:39:19.822Z,101129.84
2023-04-02T10:44:36.774Z,101138.41
2023-04-02T10:49:44.052Z,101135.47
2023-04-02T10:54:49.656Z,101152.78
2023-04-02T10:59:57.568Z,101156.72
2023-04-02T11:05:04.637Z,101170.06
2023-04-02T11:10:08.956Z,101177.00
2023-04-02T11:15:19.129Z,101183.72
2023-04-02T11:20:45.001Z,101188.72
2023-04-02T11:25:48.230Z,101190.16
2023-04-02T11:30:52.646Z,101185.91
2023-04-02T11:35:55.532Z,101205.03
2023-04-02T11:40:59.547Z,101206.34
2023-04-02T11:46:05.702Z,101208.00
2023-04-02T11:51:36.622Z,101207.91
2023-04-02T11:56:48.243Z,101204.41
2023-04-02T12:02:10.286Z,101211.50
2023-04-02T12:07:35.026Z,101205.66
2023-04-02T12:12:39.835Z,101227.44
2023-04-02T12:17:44.902Z,101238.50
2023-04-02T12:22:51.692Z,101254.81
2023-04-02T12:28:05.733Z,101248.34
2023-04-02T12:33:30.500Z,101258.94
2023-04-02T12:38:36.727Z,101270.00
2023-04-02T12:43:40.088Z,101269.00
2023-04-02T12:48:44.400Z,101273.63
2023-04-02T12:53:51.449Z,101281.44
2023-04-02T12:58:56.554Z,101290.31
2023-04-02T13:04:06.098Z,101307.31
2023-04-02T13:09:29.054Z,101293.81
2023-04-02T13:14:32.450Z,101287.88
2023-04-02T13:19:36.708Z,101301.00
2023-04-02T13:24:41.282Z,101291.19
2023-04-02T13:29:44.115Z,101287.69
2023-04-02T13:34:48.242Z,101283.34
2023-04-02T13:39:51.034Z,101282.25
2023-04-02T13:44:53.943Z,101283.25
2023-04-02T13:49:58.136Z,101285.63
2023-04-02T13:55:01.294Z,101284.69
2023-04-02T14:00:05.366Z,101286.38
2023-04-02T14:05:18.990Z,101287.50
2023-04-02T14:10:33.100Z,101294.69
2023-04-02T14:15:49.006Z,101288.47
2023-04-02T14:21:06.448Z,101290.47
2023-04-02T14:26:16.881Z,101284.69
2023-04-02T14:31:28.843Z,101302.38
2023-04-02T14:36:45.790Z,101305.56
2023-04-02T14:41:53.372Z,101302.84
2023-04-02T14:47:03.178Z,101304.16
2023-04-02T14:52:12.948Z,101302.47
2023-04-02T14:57:21.532Z,101301.88
2023-04-02T15:02:36.095Z,101304.38
2023-04-02T15:07:46.127Z,101299.41
2023-04-02T15:12:50.023Z,101299.66
2023-04-02T15:17:52.892Z,101317.63
2023-04-02T15:23:09.391Z,101323.06
2023-04-02T15:28:26.483Z,101315.56
2023-04-02T15:33:42.349Z,101316.50
2023-04-02T15:38:51.302Z,101323.25
2023-04-02T15:44:02.793Z,101334.75
2023-04-02T15:49:13.999Z,101338.09
2023-04-02T15:54:34.241Z,101354.50
2023-04-02T16:00:05.117Z,101365.97
2023-04-02T16:05:21.833Z,101364.56
2023-04-02T16:10:40.908Z,101367.09
2023-04-02T16:15:50.628Z,101372.75
2023-04-02T16:20:57.109Z,101373.91
2023-04-02T16:26:10.575Z,101380.16
2023-04-02T16:31:20.824Z,101385.50
2023-04-02T16:36:36.622Z,101394.94
2023-04-02T16:41:53.722Z,101397.31
2023-04-02T16:47:05.561Z,101406.84
2023-04-02T16:52:30.755Z,101411.69
2023-04-02T16:57:42.528Z,101412.72
2023-04-02T17:03:02.797Z,101425.03
2023-04-02T17:08:23.861Z,101438.97
2023-04-02T17:13:39.601Z,101443.38
2023-04-02T17:18:44.818Z,101446.84
2023-04-02T17:23:56.383Z,101450.13
2023-04-02T17:29:06.983Z,101457.69
2023-04-02T17:34:14.575Z,101471.38
2023-04-02T17:39:22.951Z,101480.13
2023-04-02T17:44:45.761Z,101487.78
2023-04-02T17:49:54.299Z,101483.72
2023-04-02T17:55:06.358Z,101490.66
2023-04-02T18:00:36.296Z,101499.31
2023-04-02T18:05:45.689Z,101509.31
2023-04-02T18:10:59.271Z,101515.69
2023-04-02T18:16:14.906Z,101512.59
2023-04-02T18:21:25.993Z,101527.50
2023-04-02T18:26:39.219Z,101536.78
2023-04-02T18:31:51.587Z,101557.75
2023-04-02T18:37:06.069Z,101551.00
2023-04-02T18:42:20.905Z,101561.53
2023-04-02T18:47:31.208Z,101562.53
2023-04-02T18:52:35.271Z,101567.09
2023-04-02T18:57:42.396Z,101580.53
2023-04-02T19:02:50.209Z,101589.25
2023-04-02T19:08:00.191Z,101597.19
2023-04-02T19:13:02.982Z,101596.25
2023-04-02T19:18:17.666Z,101610.63
2023-04-02T19:23:38.365Z,101609.03
2023-04-02T19:28:49.314Z,101626.00
2023-04-02T19:34:00.497Z,101631.34
2023-04-02T19:39:23.735Z,101634.97
2023-04-02T19:44:26.554Z,101646.81
2023-04-02T19:49:33.677Z,101651.63
2023-04-02T19:54:38.289Z,101655.09
2023-04-02T19:59:41.328Z,101650.25
2023-04-02T20:04:45.450Z,101667.94
2023-04-02T20:09:48.202Z,101669.78
2023-04-02T20:14:51.111Z,101678.25
2023-04-02T20:19:55.653Z,101684.28
2023-04-02T20:24:58.403Z,101681.19
2023-04-02T20:30:01.122Z,101689.56
2023-04-02T20:35:06.028Z,101701.56
2023-04-02T20:40:10.065Z,101711.88
2023-04-02T20:45:12.932Z,101713.16
2023-04-02T20:50:17.604Z,101718.91
2023-04-02T20:55:20.451Z,101719.16
2023-04-02T21:00:23.348Z,101732.75
2023-04-02T21:05:27.742Z,101742.91
2023-04-02T21:10:30.672Z,101738.34
2023-04-02T21:15:34.195Z,101745.47
2023-04-02T21:20:38.564Z,101751.03
2023-04-02T21:25:41.270Z,101756.38
2023-04-02T21:30:44.001Z,101763.94
2023-04-02T21:35:48.887Z,101763.16
2023-04-02T21:40:51.621Z,101775.00
2023-04-02T21:45:59.428Z,101784.78
2023-04-02T21:51:08.257Z,101786.88
2023-04-02T21:56:14.194Z,101795.97
2023-04-02T22:01:26.498Z,101800.56
2023-04-02T22:06:33.898Z,101800.91
2023-04-02T22:11:38.599Z,101799.31
2023-04-02T22:16:41.767Z,101808.66
2023-04-02T22:21:46.428Z,101820.28
2023-04-02T22:26:50.047Z,101823.97
2023-04-02T22:31:52.823Z,101825.06
2023-04-02T22:36:57.147Z,101836.75
2023-04-02T22:41:59.871Z,101841.38
2023-04-02T22:47:02.716Z,101840.75
2023-04-02T22:52:08.933Z,101855.13
2023-04-02T22:57:11.674Z,101852.03
2023-04-02T23:02:14.472Z,101860.00
2023-04-02T23:07:18.832Z,101868.06
2023-04-02T23:12:21.907Z,101875.22
2023-04-02T23:17:25.087Z,101880.88
2023-04-02T23:22:29.290Z,101881.94
2023-04-02T23:27:32.431Z,101893.59
2023-04-02T23:32:35.507Z,101896.34
2023-04-02T23:37:39.672Z,101902.69
2023-04-02T23:42:42.416Z,101905.50
2023-04-02T23:47:45.449Z,101900.59
2023-04-02T23:52:49.621Z,101912.16
2023-04-02T23:57:52.397Z,101903.44
